Vtc Dragon — 3WSU — position and weather

sailwx.info

Track history (hours):
 
Tides and Currents Weather Stations Pressure Air Temp Water Temp Dewpoint Dewpoint Depression Visibility Wind Speed Wind Dir Waves Ship Positions

Vtc Dragon

Last reported at 2018-Jan-25 13:03 UTC. Time now 2018-Feb-17 23:13 UTC.
Position N 07°19' W 021°41'.
Warning: this ship's position is 23 days out of date.

Length 154 m; draft 5.7 m.

Type: Cargo ship. MMSI: 574493000.

Date/timePositionNaut miles runAvg speedWind from/ knotsBaromVisibWave heightAir tempDewpointWater temp
2018-Jan-25 13:03N 07°19' W 021°41'111.9
2018-Jan-25 13:00N 07°20' W 021°41'612.0
2018-Jan-25 12:29N 07°25' W 021°38'2611.8
2018-Jan-25 10:19N 07°48' W 021°25'1112.1
2018-Jan-25 09:25N 07°57' W 021°19'512.1
2018-Jan-25 09:00N 08°01' W 021°17'1912.1
2018-Jan-25 07:26N 08°18' W 021°07'15311.7
2018-Jan-24 18:21N 10°30' W 019°50'5312.5
2018-Jan-24 14:08N 11°16' W 019°23'412.3
2018-Jan-24 13:47N 11°20' W 019°21'  
Track history (hours):
 
Tides and Currents Weather Stations Pressure Air Temp Water Temp Dewpoint Dewpoint Depression Visibility Wind Speed Wind Dir Waves Ship Positions

Vtc Dragon

Last reported at 2018-Jan-25 13:03 UTC. Time now 2018-Feb-17 23:13 UTC.
Position N 07°19' W 021°41'.
Warning: this ship's position is 23 days out of date.

Length 154 m; draft 5.7 m.

Type: Cargo ship. MMSI: 574493000.

Date/timePositionNaut miles runAvg speedWind from/ knotsBaromVisibWave heightAir tempDewpointWater temp
2018-Jan-25 13:03N 07°19' W 021°41'111.9
2018-Jan-25 13:00N 07°20' W 021°41'612.0
2018-Jan-25 12:29N 07°25' W 021°38'2611.8
2018-Jan-25 10:19N 07°48' W 021°25'1112.1
2018-Jan-25 09:25N 07°57' W 021°19'512.1
2018-Jan-25 09:00N 08°01' W 021°17'1912.1
2018-Jan-25 07:26N 08°18' W 021°07'15311.7
2018-Jan-24 18:21N 10°30' W 019°50'5312.5
2018-Jan-24 14:08N 11°16' W 019°23'412.3
2018-Jan-24 13:47N 11°20' W 019°21'  

Dump ship's entire track history